< < Back
Terminal Aerodrome Forecast


Current Version              Previous Versions:   1  2  3  4  5  6  7  8  9  

Terminal Aerodrome Forecast

718
FTUS44 KBMX 260520
TAFANB
TAF
KANB 260520Z 2606/2706 10002KT P6SM SCT250
     FM261100 08003KT 5SM BR FEW250
     FM261400 19006KT P6SM FEW250=

Latest METAR

252
SAUS70 KWBC 270200 RRG
MTRANB
METAR KANB 270153Z AUTO 23003KT 10SM CLR 24/18 A3006 RMK AO2 SLP171
T02390183


USA.gov is the U.S. government's official web portal to all federal, state and local government web resources and services.